createdAt,value
2022-12-18T00:02:11.975Z,-3.31
2022-12-18T00:04:38.345Z,-3.38
2022-12-18T00:07:04.695Z,-3.43
2022-12-18T00:09:39.527Z,-3.48
2022-12-18T00:14:45.474Z,-3.60
2022-12-18T00:17:11.971Z,-3.63
2022-12-18T00:19:38.371Z,-3.72
2022-12-18T00:22:04.736Z,-3.72
2022-12-18T00:24:31.323Z,-3.75
2022-12-18T00:26:57.715Z,-3.75
2022-12-18T00:29:24.090Z,-3.76
2022-12-18T00:31:50.520Z,-3.81
2022-12-18T00:34:17.010Z,-3.80
2022-12-18T00:36:43.402Z,-3.77
2022-12-18T00:39:11.723Z,-3.69
2022-12-18T00:41:56.716Z,-3.71
2022-12-18T00:44:23.160Z,-3.69
2022-12-18T00:46:49.725Z,-3.74
2022-12-18T00:49:18.785Z,-3.75
2022-12-18T00:51:46.132Z,-3.81
2022-12-18T00:54:12.567Z,-3.80
2022-12-18T00:56:48.186Z,-3.80
2022-12-18T00:59:16.170Z,-3.86
2022-12-18T01:01:43.105Z,-3.89
2022-12-18T01:04:09.602Z,-3.92
2022-12-18T01:06:35.963Z,-4.02
2022-12-18T01:09:03.095Z,-4.05
2022-12-18T01:11:29.519Z,-4.07
2022-12-18T01:13:56.283Z,-4.12
2022-12-18T01:16:23.731Z,-4.18
2022-12-18T01:18:54.473Z,-4.23
2022-12-18T01:21:21.738Z,-4.23
2022-12-18T01:23:51.634Z,-4.27
2022-12-18T01:26:18.028Z,-4.27
2022-12-18T01:28:45.280Z,-4.23
2022-12-18T01:31:21.102Z,-4.22
2022-12-18T01:33:48.993Z,-4.29
2022-12-18T01:36:19.260Z,-4.30
2022-12-18T01:38:46.778Z,-4.38
2022-12-18T01:41:14.176Z,-4.39
2022-12-18T01:44:26.653Z,-4.34
2022-12-18T01:46:53.022Z,-4.46
2022-12-18T01:49:19.369Z,-4.45
2022-12-18T01:51:45.714Z,-4.47
2022-12-18T01:54:12.081Z,-4.48
2022-12-18T01:56:38.413Z,-4.48
2022-12-18T01:59:09.971Z,-4.49
2022-12-18T02:01:38.872Z,-4.48
2022-12-18T02:04:26.503Z,-4.46
2022-12-18T02:06:58.136Z,-4.47
2022-12-18T02:09:32.883Z,-4.50
2022-12-18T02:12:14.170Z,-4.55
2022-12-18T02:14:54.143Z,-4.62
2022-12-18T02:17:24.173Z,-4.73
2022-12-18T02:20:09.320Z,-4.73
2022-12-18T02:22:38.576Z,-4.80
2022-12-18T02:25:14.346Z,-4.81
2022-12-18T02:27:44.761Z,-145.50
2022-12-18T02:30:11.480Z,-145.50
2022-12-18T02:32:43.244Z,-145.50
2022-12-18T02:35:15.813Z,-145.50
2022-12-18T02:37:45.669Z,-145.50
2022-12-18T02:40:14.985Z,-145.50
2022-12-18T02:42:41.397Z,-145.50
2022-12-18T02:45:08.307Z,-145.50
2022-12-18T02:47:38.749Z,-145.50
2022-12-18T02:50:14.440Z,-145.50
2022-12-18T02:52:50.392Z,-145.50
2022-12-18T02:55:27.356Z,-145.50
2022-12-18T02:58:19.710Z,-145.50
2022-12-18T03:00:59.817Z,-145.50
2022-12-18T03:03:33.676Z,-145.50
2022-12-18T03:06:05.373Z,-145.50
2022-12-18T03:08:40.041Z,-145.50
2022-12-18T03:11:09.866Z,-145.50
2022-12-18T03:13:56.983Z,-145.50
2022-12-18T03:16:27.265Z,-145.50
2022-12-18T03:18:58.337Z,-145.50
2022-12-18T03:21:37.662Z,-145.50
2022-12-18T03:24:08.775Z,-145.50
2022-12-18T03:26:41.119Z,-145.50
2022-12-18T03:29:13.547Z,-145.50
2022-12-18T03:31:44.165Z,-145.50
2022-12-18T03:34:16.122Z,-145.50
2022-12-18T03:36:42.470Z,-145.50
2022-12-18T03:39:08.838Z,-145.50
2022-12-18T03:41:46.132Z,-145.50
2022-12-18T03:44:19.495Z,-145.50
2022-12-18T03:47:04.598Z,-145.50
2022-12-18T03:49:59.919Z,-145.50
2022-12-18T03:52:37.341Z,-145.50
2022-12-18T03:55:06.032Z,-145.50
2022-12-18T03:57:33.974Z,-145.50
2022-12-18T04:00:14.238Z,-145.50
2022-12-18T04:02:45.756Z,-145.50
2022-12-18T04:05:14.183Z,-145.50
2022-12-18T04:07:41.536Z,-145.50
2022-12-18T04:10:09.993Z,-145.50
2022-12-18T04:12:38.255Z,-145.50
2022-12-18T04:15:05.687Z,-145.50
2022-12-18T04:17:32.113Z,-145.50
2022-12-18T04:19:58.434Z,-145.50
2022-12-18T04:22:24.776Z,-145.50
2022-12-18T04:24:51.173Z,-145.50
2022-12-18T04:27:17.745Z,-145.50
2022-12-18T04:29:44.106Z,-145.50
2022-12-18T04:32:10.582Z,-145.50
2022-12-18T04:34:36.922Z,-145.50
2022-12-18T04:37:03.612Z,-145.50
2022-12-18T04:39:30.122Z,-145.50
2022-12-18T04:41:56.458Z,-145.50
2022-12-18T04:44:23.549Z,-145.50
2022-12-18T04:46:50.139Z,-145.50
2022-12-18T04:49:16.723Z,-145.50
2022-12-18T04:51:43.101Z,-145.50
2022-12-18T04:54:09.430Z,-145.50
2022-12-18T04:56:35.837Z,-145.50
2022-12-18T04:59:02.165Z,-145.50
2022-12-18T05:01:34.280Z,-145.50
2022-12-18T05:04:02.201Z,-145.50
2022-12-18T05:06:28.668Z,-145.50
2022-12-18T05:08:55.042Z,-145.50
2022-12-18T05:11:21.520Z,-145.50
2022-12-18T05:13:47.918Z,-145.50
2022-12-18T05:16:15.094Z,-145.50
2022-12-18T05:18:42.302Z,-145.50
2022-12-18T05:21:08.750Z,-145.50
2022-12-18T05:23:35.786Z,-145.50
2022-12-18T05:26:05.516Z,-145.50
2022-12-18T05:28:33.485Z,-145.50
2022-12-18T05:31:03.076Z,-145.50
2022-12-18T05:33:32.417Z,-145.50
2022-12-18T05:36:06.370Z,-145.50
2022-12-18T05:38:34.252Z,-145.50
2022-12-18T05:41:00.758Z,-145.50
2022-12-18T05:43:28.180Z,-145.50
2022-12-18T05:45:55.388Z,-145.50
2022-12-18T05:48:22.461Z,-145.50
2022-12-18T05:50:50.518Z,-145.50
2022-12-18T05:53:20.145Z,-145.50
2022-12-18T05:55:47.165Z,-145.50
2022-12-18T05:58:14.635Z,-145.50
2022-12-18T06:00:44.480Z,-145.50
2022-12-18T06:03:12.060Z,-145.50
2022-12-18T06:05:40.840Z,-145.50
2022-12-18T06:08:07.939Z,-145.50
2022-12-18T06:10:34.374Z,-145.50
2022-12-18T06:13:01.277Z,-145.50
2022-12-18T06:15:27.752Z,-145.50
2022-12-18T06:17:54.193Z,-145.50
2022-12-18T06:20:21.040Z,-145.50
2022-12-18T06:22:47.455Z,-145.50
2022-12-18T06:25:13.825Z,-145.50
2022-12-18T06:27:40.258Z,-145.50
2022-12-18T06:30:09.440Z,-145.50
2022-12-18T06:32:35.967Z,-145.50
2022-12-18T06:35:02.332Z,-145.50
2022-12-18T06:37:29.165Z,-145.50
2022-12-18T06:39:55.605Z,-145.50
2022-12-18T06:42:23.132Z,-145.50
2022-12-18T06:44:49.485Z,-145.50
2022-12-18T06:47:15.824Z,-145.50
2022-12-18T06:49:42.162Z,-145.50
2022-12-18T06:52:08.553Z,-145.50
2022-12-18T06:54:35.029Z,-145.50
2022-12-18T06:57:01.337Z,-145.50
2022-12-18T06:59:27.749Z,-145.50
2022-12-18T07:01:54.741Z,-145.50
2022-12-18T07:04:21.195Z,-145.50
2022-12-18T07:06:47.630Z,-145.50
2022-12-18T07:09:13.929Z,-145.50
2022-12-18T07:11:40.265Z,-145.50
2022-12-18T07:14:06.631Z,-145.50
2022-12-18T07:16:32.956Z,-145.50
2022-12-18T07:18:59.323Z,-145.50
2022-12-18T07:21:26.194Z,-145.50
2022-12-18T07:23:53.222Z,-145.50
2022-12-18T07:26:21.696Z,-145.50
2022-12-18T07:28:48.898Z,-145.50
2022-12-18T07:31:21.837Z,-145.50
2022-12-18T07:33:49.052Z,-145.50
2022-12-18T07:36:15.692Z,-145.50
2022-12-18T07:38:42.581Z,-145.50
2022-12-18T07:41:12.321Z,-145.50
2022-12-18T07:43:39.859Z,-145.50
2022-12-18T07:46:07.894Z,-145.50
2022-12-18T07:48:34.490Z,-145.50
2022-12-18T07:51:05.920Z,-145.50
2022-12-18T07:53:33.666Z,-145.50
2022-12-18T07:56:26.545Z,-145.50
2022-12-18T07:58:49.337Z,-145.50
2022-12-18T08:01:15.892Z,-145.50
2022-12-18T08:03:42.664Z,-145.50
2022-12-18T08:06:10.708Z,-145.50
2022-12-18T08:08:37.898Z,-145.50
2022-12-18T08:11:04.298Z,-145.50
2022-12-18T08:13:30.925Z,-145.50
2022-12-18T08:16:06.579Z,-4.81
2022-12-18T08:18:34.617Z,-4.55
2022-12-18T08:21:12.089Z,-4.48
2022-12-18T08:23:42.645Z,-4.44
2022-12-18T08:26:11.230Z,-4.41
2022-12-18T08:28:37.737Z,-4.39
2022-12-18T08:31:04.858Z,-4.33
2022-12-18T08:33:31.570Z,-4.22
2022-12-18T08:35:59.413Z,-4.12
2022-12-18T08:38:25.759Z,-4.13
2022-12-18T08:41:00.491Z,-4.01
2022-12-18T08:43:45.734Z,-3.97
2022-12-18T08:46:13.190Z,-3.83
2022-12-18T08:48:39.611Z,-3.75
2022-12-18T08:51:06.085Z,-3.61
2022-12-18T08:53:35.655Z,-3.46
2022-12-18T08:56:02.698Z,-3.35
2022-12-18T08:58:29.073Z,-3.29
2022-12-18T09:00:55.484Z,-3.22
2022-12-18T09:03:23.419Z,-3.16
2022-12-18T09:05:49.962Z,-3.07
2022-12-18T09:08:16.315Z,-2.99
2022-12-18T09:10:44.356Z,-2.86
2022-12-18T09:13:12.031Z,-2.80
2022-12-18T09:15:54.576Z,-2.72
2022-12-18T09:18:22.892Z,-2.69
2022-12-18T09:20:49.267Z,-2.68
2022-12-18T09:23:15.718Z,-2.61
2022-12-18T09:25:42.054Z,-2.55
2022-12-18T09:28:16.237Z,-2.45
2022-12-18T09:30:45.624Z,-2.38
2022-12-18T09:33:12.063Z,-2.28
2022-12-18T09:35:41.489Z,-2.22
2022-12-18T09:38:09.665Z,-2.17
2022-12-18T09:40:42.272Z,-2.12
2022-12-18T09:43:18.967Z,-2.03
2022-12-18T09:45:50.251Z,-1.97
2022-12-18T09:48:27.105Z,-1.93
2022-12-18T09:50:59.389Z,-1.87
2022-12-18T09:53:31.122Z,-1.85
2022-12-18T09:55:58.448Z,-1.85
2022-12-18T09:58:45.265Z,-1.77
2022-12-18T10:01:19.235Z,-1.70
2022-12-18T10:03:45.740Z,-1.68
2022-12-18T10:06:17.301Z,-1.57
2022-12-18T10:08:49.985Z,-1.50
2022-12-18T10:11:46.695Z,-1.54
2022-12-18T10:14:24.306Z,-1.47
2022-12-18T10:17:12.881Z,-1.42
2022-12-18T10:19:49.965Z,-1.40
2022-12-18T10:22:22.167Z,-1.30
2022-12-18T10:25:02.475Z,-1.28
2022-12-18T10:27:29.762Z,-1.20
2022-12-18T10:29:56.889Z,-1.17
2022-12-18T10:32:28.724Z,-1.08
2022-12-18T10:35:00.551Z,-1.08
2022-12-18T10:37:30.462Z,-0.98
2022-12-18T10:40:09.183Z,-0.92
2022-12-18T10:42:35.507Z,-0.94
2022-12-18T10:45:05.071Z,-0.93
2022-12-18T10:47:31.495Z,-0.89
2022-12-18T10:49:57.949Z,-0.78
2022-12-18T10:52:26.651Z,-0.71
2022-12-18T10:54:57.893Z,-0.68
2022-12-18T10:57:26.982Z,-0.62
2022-12-18T10:59:56.127Z,-0.63
2022-12-18T11:02:40.566Z,-0.50
2022-12-18T11:05:30.002Z,-0.43
2022-12-18T11:07:57.639Z,-0.46
2022-12-18T11:10:29.709Z,-0.40
2022-12-18T11:12:56.235Z,-0.40
2022-12-18T11:15:31.475Z,-0.28
2022-12-18T11:17:57.871Z,-0.32
2022-12-18T11:20:30.591Z,-0.33
2022-12-18T11:23:00.292Z,-0.14
2022-12-18T11:25:35.341Z,-0.26
2022-12-18T11:28:06.130Z,-0.18
2022-12-18T11:30:37.719Z,-0.17
2022-12-18T11:33:08.029Z,-0.14
2022-12-18T11:36:04.668Z,-0.09
2022-12-18T11:38:35.545Z,-0.02
2022-12-18T11:41:17.340Z,-0.01
2022-12-18T11:43:53.926Z,0.01
2022-12-18T11:46:31.807Z,0.10
2022-12-18T11:49:23.413Z,0.10
2022-12-18T11:51:56.418Z,0.17
2022-12-18T11:54:22.837Z,0.11
2022-12-18T11:56:54.156Z,0.18
2022-12-18T11:59:40.492Z,0.22
2022-12-18T12:02:34.679Z,0.26
2022-12-18T12:05:32.544Z,0.31
2022-12-18T12:08:19.712Z,0.32
2022-12-18T12:11:11.124Z,0.34
2022-12-18T12:14:06.554Z,0.41
2022-12-18T12:16:44.488Z,0.36
2022-12-18T12:19:41.819Z,0.40
2022-12-18T12:22:35.935Z,0.47
2022-12-18T12:25:21.768Z,0.55
2022-12-18T12:28:07.200Z,0.58
2022-12-18T12:30:51.065Z,0.58
2022-12-18T12:33:38.481Z,0.61
2022-12-18T12:36:27.533Z,0.59
2022-12-18T12:38:58.561Z,0.59
2022-12-18T12:41:54.758Z,0.57
2022-12-18T12:44:27.540Z,0.61
2022-12-18T12:47:00.295Z,0.60
2022-12-18T12:49:32.230Z,0.57
2022-12-18T12:52:11.869Z,0.63
2022-12-18T12:54:38.750Z,0.59
2022-12-18T12:57:28.074Z,0.71
2022-12-18T13:00:12.217Z,0.68
2022-12-18T13:02:53.984Z,0.67
2022-12-18T13:05:31.066Z,0.66
2022-12-18T13:08:04.552Z,0.66
2022-12-18T13:10:37.492Z,0.68
2022-12-18T13:13:09.123Z,0.67
2022-12-18T13:15:40.166Z,0.67
2022-12-18T13:18:09.859Z,0.66
2022-12-18T13:20:42.552Z,0.66
2022-12-18T13:23:25.419Z,0.75
2022-12-18T13:26:07.488Z,0.69
2022-12-18T13:28:33.892Z,0.70
2022-12-18T13:31:02.348Z,0.72
2022-12-18T13:34:23.968Z,0.76
2022-12-18T13:36:34.821Z,0.67
2022-12-18T13:39:35.454Z,0.72
2022-12-18T13:42:05.298Z,0.79
2022-12-18T13:44:43.148Z,0.76
2022-12-18T13:47:31.998Z,0.73
2022-12-18T13:49:58.497Z,0.84
2022-12-18T13:52:37.162Z,0.80
2022-12-18T13:55:15.550Z,0.82
2022-12-18T13:57:42.220Z,0.81
2022-12-18T14:00:25.811Z,0.81
2022-12-18T14:02:52.940Z,0.73
2022-12-18T14:05:35.205Z,0.71
2022-12-18T14:08:10.985Z,0.77
2022-12-18T14:10:49.086Z,0.76
2022-12-18T14:13:18.960Z,0.75
2022-12-18T14:15:49.745Z,0.78
2022-12-18T14:18:48.853Z,0.76
2022-12-18T14:21:22.475Z,0.75
2022-12-18T14:23:49.256Z,0.70
2022-12-18T14:26:30.679Z,0.76
2022-12-18T14:28:58.060Z,0.75
2022-12-18T14:31:30.336Z,0.79
2022-12-18T14:33:56.871Z,0.72
2022-12-18T14:36:26.295Z,0.86
2022-12-18T14:38:57.970Z,0.77
2022-12-18T14:41:26.014Z,0.72
2022-12-18T14:43:54.826Z,0.72
2022-12-18T14:46:36.819Z,0.66
2022-12-18T14:49:33.748Z,0.74
2022-12-18T14:52:02.209Z,0.69
2022-12-18T14:54:30.075Z,0.70
2022-12-18T14:57:24.245Z,0.70
2022-12-18T14:59:51.472Z,0.72
2022-12-18T15:02:25.147Z,0.80
2022-12-18T15:05:14.693Z,0.77
2022-12-18T15:07:50.352Z,0.78
2022-12-18T15:10:28.775Z,0.72
2022-12-18T15:12:57.865Z,0.72
2022-12-18T15:15:44.330Z,0.73
2022-12-18T15:18:11.367Z,0.59
2022-12-18T15:20:59.975Z,0.75
2022-12-18T15:23:38.701Z,0.73
2022-12-18T15:26:09.959Z,0.67
2022-12-18T15:28:46.091Z,0.69
2022-12-18T15:31:13.017Z,0.64
2022-12-18T15:34:03.999Z,0.73
2022-12-18T15:36:31.273Z,0.66
2022-12-18T15:39:04.704Z,0.62
2022-12-18T15:41:36.495Z,0.62
2022-12-18T15:44:16.633Z,0.65
2022-12-18T15:46:43.162Z,0.64
2022-12-18T15:49:09.590Z,0.56
2022-12-18T15:51:38.210Z,0.49
2022-12-18T15:54:10.349Z,0.52
2022-12-18T15:56:55.438Z,0.48
2022-12-18T15:59:23.707Z,0.51
2022-12-18T16:01:52.366Z,0.48
2022-12-18T16:04:21.501Z,0.44
2022-12-18T16:07:13.737Z,0.35
2022-12-18T16:09:36.356Z,0.40
2022-12-18T16:12:03.420Z,0.40
2022-12-18T16:14:31.608Z,0.41
2022-12-18T16:17:03.534Z,0.44
2022-12-18T16:19:30.419Z,0.30
2022-12-18T16:21:58.659Z,0.30
2022-12-18T16:24:27.485Z,0.32
2022-12-18T16:26:54.288Z,0.35
2022-12-18T16:29:25.650Z,0.34
2022-12-18T16:31:52.966Z,0.30
2022-12-18T16:34:28.683Z,0.31
2022-12-18T16:37:05.273Z,0.42
2022-12-18T16:39:34.088Z,0.37
2022-12-18T16:42:03.884Z,0.34
2022-12-18T16:44:32.898Z,0.33
2022-12-18T16:47:02.627Z,0.36
2022-12-18T16:49:29.500Z,0.32
2022-12-18T16:51:55.904Z,0.24
2022-12-18T16:54:22.277Z,0.25
2022-12-18T16:56:50.297Z,0.25
2022-12-18T16:59:16.592Z,0.29
2022-12-18T17:01:43.069Z,0.27
2022-12-18T17:04:09.817Z,0.33
2022-12-18T17:06:41.175Z,0.32
2022-12-18T17:09:12.068Z,0.32
2022-12-18T17:11:38.448Z,0.32
2022-12-18T17:14:08.757Z,0.33
2022-12-18T17:16:35.680Z,0.24
2022-12-18T17:19:02.377Z,0.24
2022-12-18T17:21:28.987Z,0.21
2022-12-18T17:23:55.341Z,0.26
2022-12-18T17:26:21.708Z,0.19
2022-12-18T17:28:48.114Z,0.23
2022-12-18T17:31:21.163Z,0.23
2022-12-18T17:33:48.468Z,0.14
2022-12-18T17:36:16.019Z,0.18
2022-12-18T17:38:43.317Z,0.13
2022-12-18T17:41:11.383Z,0.20
2022-12-18T17:43:45.876Z,0.14
2022-12-18T17:46:14.485Z,0.25
2022-12-18T17:48:41.374Z,0.10
2022-12-18T17:51:09.742Z,0.18
2022-12-18T17:53:41.763Z,0.23
2022-12-18T17:56:12.593Z,0.23
2022-12-18T17:58:39.761Z,0.23
2022-12-18T18:01:06.985Z,0.26
2022-12-18T18:03:34.581Z,0.24
2022-12-18T18:06:02.452Z,0.17
2022-12-18T18:08:29.364Z,0.25
2022-12-18T18:11:16.059Z,0.16
2022-12-18T18:14:00.732Z,0.20
2022-12-18T18:16:34.015Z,0.15
2022-12-18T18:19:02.762Z,0.11
2022-12-18T18:21:30.415Z,0.18
2022-12-18T18:24:04.280Z,0.23
2022-12-18T18:26:32.879Z,0.24
2022-12-18T18:29:00.550Z,0.19
2022-12-18T18:31:30.663Z,0.19
2022-12-18T18:33:57.447Z,0.23
2022-12-18T18:36:24.226Z,0.20
2022-12-18T18:38:51.759Z,0.27
2022-12-18T18:41:19.543Z,0.26
2022-12-18T18:43:46.178Z,0.28
2022-12-18T18:46:14.486Z,0.31
2022-12-18T18:48:41.761Z,0.28
2022-12-18T18:51:21.455Z,0.37
2022-12-18T18:53:49.986Z,0.30
2022-12-18T18:59:06.928Z,0.18
2022-12-18T19:01:33.426Z,0.17
2022-12-18T19:04:00.864Z,0.18
2022-12-18T19:06:28.958Z,0.27
2022-12-18T19:08:56.825Z,0.30
2022-12-18T19:11:47.967Z,0.33
2022-12-18T19:14:15.693Z,0.36
2022-12-18T19:16:43.653Z,0.31
2022-12-18T19:19:10.392Z,0.25
2022-12-18T19:21:38.182Z,0.32
2022-12-18T19:24:05.219Z,0.38
2022-12-18T19:26:31.776Z,0.40
2022-12-18T19:29:06.475Z,0.44
2022-12-18T19:31:36.013Z,0.36
2022-12-18T19:34:04.230Z,0.41
2022-12-18T19:36:31.076Z,0.38
2022-12-18T19:39:02.702Z,0.44
2022-12-18T19:41:31.622Z,0.43
2022-12-18T19:43:59.629Z,0.46
2022-12-18T19:46:26.117Z,0.37
2022-12-18T19:48:55.759Z,0.51
2022-12-18T19:51:25.086Z,0.44
2022-12-18T19:53:58.216Z,0.43
2022-12-18T19:56:27.463Z,0.45
2022-12-18T19:58:54.919Z,0.43
2022-12-18T20:01:23.771Z,0.52
2022-12-18T20:03:53.798Z,0.56
2022-12-18T20:06:28.391Z,0.58
2022-12-18T20:08:59.454Z,0.59
2022-12-18T20:11:27.390Z,0.52
2022-12-18T20:13:53.883Z,0.62
2022-12-18T20:16:20.599Z,0.62
2022-12-18T20:18:49.239Z,0.57
2022-12-18T20:21:16.004Z,0.64
2022-12-18T20:23:43.085Z,0.61
2022-12-18T20:26:10.093Z,0.62
2022-12-18T20:28:36.525Z,0.64
2022-12-18T20:31:08.163Z,0.65
2022-12-18T20:33:36.913Z,0.56
2022-12-18T20:36:06.824Z,0.58
2022-12-18T20:38:35.404Z,0.59
2022-12-18T20:41:06.423Z,0.53
2022-12-18T20:43:32.868Z,0.56
2022-12-18T20:46:07.423Z,0.53
2022-12-18T20:48:33.884Z,0.45
2022-12-18T20:51:02.103Z,0.43
2022-12-18T20:53:30.833Z,0.42
2022-12-18T20:55:57.488Z,0.37
2022-12-18T20:58:25.088Z,0.48
2022-12-18T21:01:03.763Z,0.57
2022-12-18T21:03:30.181Z,0.54
2022-12-18T21:05:56.538Z,0.52
2022-12-18T21:08:22.976Z,0.51
2022-12-18T21:10:49.320Z,0.47
2022-12-18T21:13:16.390Z,0.43
2022-12-18T21:15:43.539Z,0.52
2022-12-18T21:18:09.933Z,0.55
2022-12-18T21:20:36.460Z,0.60
2022-12-18T21:23:16.000Z,0.63
2022-12-18T21:25:43.252Z,0.64
2022-12-18T21:28:09.583Z,0.57
2022-12-18T21:30:36.032Z,0.53
2022-12-18T21:33:02.430Z,0.59
2022-12-18T21:35:29.276Z,0.56
2022-12-18T21:37:58.689Z,0.52
2022-12-18T21:40:25.124Z,0.57
2022-12-18T21:43:10.749Z,0.58
2022-12-18T21:45:41.458Z,0.55
2022-12-18T21:48:07.881Z,0.52
2022-12-18T21:50:34.252Z,0.52
2022-12-18T21:53:00.659Z,0.53
2022-12-18T21:55:26.957Z,0.59
2022-12-18T21:57:54.033Z,0.62
2022-12-18T22:00:20.576Z,0.64
2022-12-18T22:02:48.577Z,0.61
2022-12-18T22:05:33.733Z,0.62
2022-12-18T22:08:01.369Z,0.64
2022-12-18T22:10:27.683Z,0.56
2022-12-18T22:12:55.023Z,0.63
2022-12-18T22:15:22.075Z,0.60
2022-12-18T22:17:50.095Z,0.58
2022-12-18T22:20:16.850Z,0.59
2022-12-18T22:22:43.267Z,0.58
2022-12-18T22:25:10.608Z,0.53
2022-12-18T22:27:37.614Z,0.49
2022-12-18T22:30:05.191Z,0.57
2022-12-18T22:32:36.055Z,0.58
2022-12-18T22:35:09.218Z,0.62
2022-12-18T22:37:39.200Z,0.63
2022-12-18T22:40:07.623Z,0.63
2022-12-18T22:42:35.049Z,0.55
2022-12-18T22:45:01.444Z,0.65
2022-12-18T22:47:29.971Z,0.56
2022-12-18T22:49:57.357Z,0.48
2022-12-18T22:52:24.850Z,0.47
2022-12-18T22:54:53.711Z,0.49
2022-12-18T22:57:21.491Z,0.57
2022-12-18T22:59:47.907Z,0.51
2022-12-18T23:02:14.381Z,0.49
2022-12-18T23:04:40.831Z,0.44
2022-12-18T23:07:07.302Z,0.45
2022-12-18T23:09:33.765Z,0.49
2022-12-18T23:12:01.085Z,0.52
2022-12-18T23:14:28.521Z,0.60
2022-12-18T23:16:54.859Z,0.55
2022-12-18T23:19:22.529Z,0.60
2022-12-18T23:21:50.216Z,0.65
2022-12-18T23:24:16.621Z,0.69
2022-12-18T23:26:43.178Z,0.61
2022-12-18T23:29:09.679Z,0.58
2022-12-18T23:31:38.416Z,0.70
2022-12-18T23:34:05.434Z,0.75
2022-12-18T23:36:35.238Z,0.68
2022-12-18T23:39:12.605Z,0.69
2022-12-18T23:41:56.185Z,0.76
2022-12-18T23:44:22.560Z,0.69
2022-12-18T23:46:48.935Z,0.73
2022-12-18T23:49:15.423Z,0.73
2022-12-18T23:51:41.758Z,0.70
2022-12-18T23:54:10.191Z,0.72
2022-12-18T23:56:36.526Z,0.72
2022-12-18T23:59:02.909Z,0.56
